Time;durP1;ratioP1;P1;durP2;ratioP2;P2;SDS_P1;SDS_P2;PMS_P1;PMS_P2;Temp;Humidity;BMP_temperature;BMP_pressure;BME280_temperature;BME280_humidity;BME280_pressure;Samples;Min_cycle;Max_cycle;Signal;HPM_P1;HPM_P2
2021/07/28 00:02:17;;;;;;;;;6.00;6.00;;;;;19.64;70.26;100834.91;4988038;28;45464;-77
2021/07/28 00:04:42;;;;;;;;;6.33;5.33;;;;;19.62;70.69;100840.31;4961888;28;45749;-78
2021/07/28 00:07:09;;;;;;;;;6.00;5.00;;;;;19.59;70.80;100841.31;4966378;28;45448;-77
2021/07/28 00:09:34;;;;;;;;;7.00;5.50;;;;;19.56;70.71;100843.19;4963010;28;45258;-77
2021/07/28 00:12:00;;;;;;;;;7.00;7.00;;;;;19.54;70.82;100842.38;4962203;28;45207;-77
2021/07/28 00:14:25;;;;;;;;;4.67;4.33;;;;;19.49;71.10;100834.59;4961460;28;45275;-77
2021/07/28 00:16:51;;;;;;;;;6.00;6.00;;;;;19.47;70.98;100838.25;4961012;28;45254;-77
2021/07/28 00:19:22;;;;;;;;;6.00;6.00;;;;;19.45;70.80;100846.28;4943796;28;48290;-77
2021/07/28 00:24:35;;;;;;;;;9.00;7.67;;;;;19.32;70.70;100832.53;4961562;28;45469;-78
2021/07/28 00:27:01;;;;;;;;;7.00;7.00;;;;;19.31;70.61;100837.97;4960927;28;45240;-78
2021/07/28 00:29:30;;;;;;;;;5.00;5.00;;;;;19.26;71.09;100829.25;4979846;28;47438;-78
2021/07/28 00:31:56;;;;;;;;;5.00;5.00;;;;;19.24;70.84;100826.63;4990249;28;45424;-77
2021/07/28 00:34:22;;;;;;;;;4.33;3.67;;;;;19.20;70.91;100824.16;4980800;28;45424;-78
2021/07/28 00:36:47;;;;;;;;;5.67;4.00;;;;;19.22;70.48;100824.94;4980312;28;45349;-77
2021/07/28 00:39:13;;;;;;;;;4.67;4.67;;;;;19.17;70.29;100822.47;4980873;28;45236;-78
2021/07/28 00:41:42;;;;;;;;;5.00;4.00;;;;;19.13;70.55;100818.16;4962841;28;45191;-77
2021/07/28 00:44:07;;;;;;;;;6.00;5.00;;;;;19.08;70.61;100815.66;4951857;28;45347;-77
2021/07/28 00:46:32;;;;;;;;;5.33;5.33;;;;;19.10;70.35;100819.16;4942998;28;45586;-77
2021/07/28 00:48:58;;;;;;;;;7.67;5.33;;;;;19.07;70.45;100823.75;4961278;28;45685;-77
2021/07/28 00:51:23;;;;;;;;;7.00;3.67;;;;;19.09;70.82;100819.25;4964531;28;45286;-77
2021/07/28 00:53:49;;;;;;;;;7.33;7.00;;;;;19.04;70.27;100815.88;4964076;28;45440;-78
2021/07/28 00:56:17;;;;;;;;;4.00;4.00;;;;;19.03;70.45;100819.44;4963993;28;45421;-77
2021/07/28 00:58:43;;;;;;;;;5.00;5.00;;;;;19.04;70.42;100819.41;4963980;28;45447;-77
2021/07/28 01:01:08;;;;;;;;;6.00;5.00;;;;;18.99;70.36;100821.38;4991644;28;45475;-77
2021/07/28 01:03:34;;;;;;;;;5.00;5.00;;;;;18.97;70.60;100825.03;4974534;28;45283;-77
2021/07/28 01:06:00;;;;;;;;;5.00;5.00;;;;;18.96;70.92;100832.16;4963068;28;45517;-78
2021/07/28 01:08:26;;;;;;;;;5.50;5.50;;;;;18.94;70.55;100832.19;4978138;28;46398;-78
2021/07/28 01:10:51;;;;;;;;;5.33;5.33;;;;;18.91;70.87;100831.47;4967029;28;45249;-78
2021/07/28 01:13:26;;;;;;;;;6.00;5.00;;;;;18.84;70.89;100825.47;4962782;28;45270;-77
2021/07/28 01:15:58;;;;;;;;;7.00;5.00;;;;;18.85;70.96;100829.03;4963424;28;45256;-78
2021/07/28 01:18:23;;;;;;;;;5.67;5.67;;;;;18.86;71.02;100828.94;4963742;28;45410;-77
2021/07/28 01:20:49;;;;;;;;;5.00;5.00;;;;;18.82;71.12;100824.66;4963480;28;45273;-77
2021/07/28 01:23:23;;;;;;;;;6.67;5.67;;;;;18.84;71.09;100825.47;4963987;28;45299;-77
2021/07/28 01:25:50;;;;;;;;;5.67;5.67;;;;;18.85;70.91;100829.03;4963407;28;45237;-77
2021/07/28 01:28:16;;;;;;;;;6.00;6.00;;;;;18.80;71.14;100829.19;4974300;28;45219;-77
2021/07/28 01:30:42;;;;;;;;;4.67;4.67;;;;;18.79;71.38;100835.47;4985957;28;45240;-77
2021/07/28 01:33:08;;;;;;;;;5.33;5.33;;;;;18.82;71.11;100834.44;4972410;28;45663;-78
2021/07/28 01:35:36;;;;;;;;;5.33;5.33;;;;;18.76;71.21;100824.88;4965243;28;45643;-77
2021/07/28 01:38:02;;;;;;;;;4.67;4.67;;;;;18.77;71.03;100831.97;4981358;28;47639;-77
2021/07/28 01:40:30;;;;;;;;;4.67;4.67;;;;;18.75;71.32;100831.16;4983029;28;45330;-77
2021/07/28 01:42:58;;;;;;;;;5.00;5.00;;;;;18.75;71.13;100841.81;4983365;28;45253;-77
2021/07/28 01:45:23;;;;;;;;;6.00;6.00;;;;;18.68;70.89;100825.16;4982423;28;45465;-77
2021/07/28 01:47:51;;;;;;;;;6.00;4.00;;;;;18.68;70.85;100829.59;4982233;28;46417;-78
2021/07/28 01:50:16;;;;;;;;;4.67;4.67;;;;;18.71;70.72;100833.03;4965735;28;45293;-78
2021/07/28 01:52:42;;;;;;;;;3.00;3.00;;;;;18.71;70.74;100838.38;4964909;28;45420;-79
2021/07/28 01:55:08;;;;;;;;;5.00;5.00;;;;;18.74;70.48;100837.38;4982914;28;45433;-78
2021/07/28 01:57:34;;;;;;;;;4.00;4.00;;;;;18.67;70.44;100831.38;4982131;28;46361;-78
2021/07/28 02:00:00;;;;;;;;;3.67;3.67;;;;;18.65;71.17;100835.88;4987347;28;45431;-78
2021/07/28 02:02:34;;;;;;;;;5.00;5.00;;;;;18.65;70.82;100835.88;4967045;28;45217;-78
2021/07/28 02:04:59;;;;;;;;;5.00;3.33;;;;;18.69;70.77;100840.22;4963089;28;45501;-78
2021/07/28 02:07:25;;;;;;;;;6.67;4.00;;;;;18.68;70.68;100840.25;4968674;28;45924;-78
2021/07/28 02:09:51;;;;;;;;;7.33;4.33;;;;;18.64;70.85;100838.63;4974324;28;45303;-78
2021/07/28 02:12:16;;;;;;;;;6.00;6.00;;;;;18.70;70.51;100852.59;4963017;28;45239;-79
2021/07/28 02:14:42;;;;;;;;;6.67;4.33;;;;;18.63;70.53;100837.78;4971045;28;45609;-78
2021/07/28 02:17:07;;;;;;;;;5.00;4.00;;;;;18.70;70.69;100849.94;4949912;28;47813;-79
2021/07/28 02:19:33;;;;;;;;;2.33;2.33;;;;;18.71;70.29;100849.03;4963002;28;45437;-79
2021/07/28 02:21:58;;;;;;;;;5.00;4.33;;;;;18.68;70.82;100848.25;4963499;28;45291;-78
2021/07/28 02:24:23;;;;;;;;;7.00;5.00;;;;;18.62;70.19;100840.47;4962714;28;45452;-78
2021/07/28 02:26:49;;;;;;;;;5.67;4.67;;;;;18.66;70.50;100847.47;4963039;28;45364;-79
2021/07/28 02:29:16;;;;;;;;;6.00;4.00;;;;;18.63;70.26;100831.53;4981121;28;45337;-77
2021/07/28 02:31:42;;;;;;;;;4.00;3.00;;;;;18.68;70.18;100845.59;4988409;28;45447;-78
2021/07/28 02:34:07;;;;;;;;;3.00;3.00;;;;;18.66;70.36;100845.66;4973929;28;45409;-78
2021/07/28 02:36:33;;;;;;;;;3.33;3.33;;;;;18.68;70.20;100840.25;4963210;28;45946;-78
2021/07/28 02:38:58;;;;;;;;;4.00;4.00;;;;;18.66;70.00;100844.78;4962629;28;45343;-78
2021/07/28 02:41:24;;;;;;;;;5.00;3.00;;;;;18.62;70.17;100838.66;4962751;28;45331;-78
2021/07/28 02:43:49;;;;;;;;;5.33;4.67;;;;;18.59;69.75;100844.13;4962754;28;45268;-78
2021/07/28 02:46:14;;;;;;;;;6.00;4.00;;;;;18.62;69.94;100854.66;4961249;28;46995;-78
2021/07/28 02:48:40;;;;;;;;;6.00;6.00;;;;;18.61;69.51;100852.09;4962501;28;45389;-78
2021/07/28 02:51:05;;;;;;;;;3.67;3.67;;;;;18.54;69.86;100838.06;4961289;28;45524;-78
2021/07/28 02:53:31;;;;;;;;;3.33;3.33;;;;;18.55;69.34;100838.94;4963836;28;45145;-78
2021/07/28 02:55:56;;;;;;;;;5.00;4.67;;;;;18.59;69.66;100849.44;4961451;28;46813;-78
2021/07/28 02:58:21;;;;;;;;;3.67;3.67;;;;;18.58;69.49;100861.06;4965754;28;45226;-79
2021/07/28 03:00:47;;;;;;;;;5.00;4.00;;;;;18.51;69.37;100848.84;4973821;28;45998;-77
2021/07/28 03:03:12;;;;;;;;;3.33;2.33;;;;;18.48;69.39;100841.84;4963563;28;45210;-77
2021/07/28 03:05:38;;;;;;;;;6.33;3.67;;;;;18.49;69.57;100861.34;4977396;28;46605;-77
2021/07/28 03:08:03;;;;;;;;;5.00;4.00;;;;;18.50;69.54;100874.66;4974069;28;45450;-77
2021/07/28 03:10:31;;;;;;;;;5.33;5.00;;;;;18.46;69.47;100867.66;4969213;28;45391;-78
2021/07/28 03:12:57;;;;;;;;;4.00;4.00;;;;;18.44;69.52;100868.66;4961718;28;45857;-78
2021/07/28 03:15:22;;;;;;;;;5.67;4.00;;;;;18.42;69.24;100868.72;4960841;28;46812;-78
2021/07/28 03:17:48;;;;;;;;;3.00;3.00;;;;;18.47;69.34;100871.19;4977204;28;45356;-78
2021/07/28 03:20:14;;;;;;;;;4.00;3.00;;;;;18.48;69.21;100881.81;4961984;28;45625;-78
2021/07/28 03:22:39;;;;;;;;;4.67;4.00;;;;;18.47;69.27;100874.75;4961931;28;45437;-78
2021/07/28 03:25:05;;;;;;;;;4.67;3.67;;;;;18.41;69.36;100863.41;4977025;28;47018;-79
2021/07/28 03:27:30;;;;;;;;;3.00;3.00;;;;;18.40;69.12;100869.69;4974097;28;45273;-79
2021/07/28 03:29:55;;;;;;;;;4.67;4.33;;;;;18.42;69.19;100871.38;4984614;28;45994;-78
2021/07/28 03:32:21;;;;;;;;;7.67;5.00;;;;;18.40;69.35;100870.56;4987536;28;45561;-79
2021/07/28 03:34:46;;;;;;;;;4.33;4.33;;;;;18.39;69.26;100878.59;4965692;28;46092;-78
2021/07/28 03:37:12;;;;;;;;;4.67;4.67;;;;;18.35;69.17;100875.16;4961658;28;45377;-78
2021/07/28 03:39:37;;;;;;;;;3.00;2.00;;;;;18.38;69.62;100874.19;4976447;28;45979;-78
2021/07/28 03:42:03;;;;;;;;;2.67;2.67;;;;;18.38;68.89;100879.53;4976451;28;45250;-77
2021/07/28 03:44:28;;;;;;;;;5.00;4.25;;;;;18.36;69.00;100878.69;4962414;28;45591;-78
2021/07/28 03:46:56;;;;;;;;;4.33;3.00;;;;;18.37;68.97;100876.00;4961496;28;45375;-78
2021/07/28 03:49:22;;;;;;;;;5.00;5.00;;;;;18.34;68.60;100869.91;4962291;28;45450;-78
2021/07/28 03:51:47;;;;;;;;;3.00;3.00;;;;;18.33;68.85;100877.00;4962296;28;45404;-77
2021/07/28 03:54:15;;;;;;;;;4.33;4.00;;;;;18.28;68.66;100863.84;4961056;28;45341;-78
2021/07/28 03:56:41;;;;;;;;;4.00;4.00;;;;;18.24;68.55;100869.34;4961734;28;45328;-78
2021/07/28 03:59:06;;;;;;;;;4.67;4.00;;;;;18.28;68.60;100876.28;4959943;28;45308;-78
2021/07/28 04:01:31;;;;;;;;;3.00;3.00;;;;;18.29;68.51;100875.38;4991812;28;45166;-78
2021/07/28 04:03:57;;;;;;;;;4.00;3.67;;;;;18.24;68.54;100874.66;4966371;28;47264;-77
2021/07/28 04:06:22;;;;;;;;;3.33;3.33;;;;;18.29;68.11;100889.56;4960414;28;45247;-77
2021/07/28 04:08:48;;;;;;;;;2.00;2.00;;;;;18.22;67.99;100874.69;4965801;28;45217;-77
2021/07/28 04:11:13;;;;;;;;;4.00;3.00;;;;;18.29;67.91;100886.03;4961130;28;45490;-78
2021/07/28 04:13:39;;;;;;;;;4.33;2.33;;;;;18.22;68.36;100881.84;4959661;28;47819;-78
2021/07/28 04:16:04;;;;;;;;;3.33;3.00;;;;;18.23;67.88;100883.56;4961052;28;45466;-78
2021/07/28 04:18:30;;;;;;;;;5.00;5.00;;;;;18.18;68.09;100885.53;4976094;28;45326;-78
2021/07/28 04:20:55;;;;;;;;;3.00;2.33;;;;;18.17;67.98;100889.97;4961069;28;45388;-78
2021/07/28 04:23:21;;;;;;;;;4.67;3.67;;;;;18.22;67.94;100901.34;4959197;28;48291;-78
2021/07/28 04:25:46;;;;;;;;;3.67;3.67;;;;;18.20;67.35;100897.88;4960731;28;45368;-78
2021/07/28 04:28:12;;;;;;;;;3.00;3.00;;;;;18.23;67.42;100902.22;4970758;28;45502;-78
2021/07/28 04:30:37;;;;;;;;;5.50;4.00;;;;;18.22;67.43;100905.81;4979619;28;45412;-78
2021/07/28 04:33:02;;;;;;;;;3.67;3.00;;;;;18.19;67.62;100897.94;4985942;28;48411;-78
2021/07/28 04:35:28;;;;;;;;;5.33;3.00;;;;;18.22;67.29;100903.16;4960237;28;46523;-79
2021/07/28 04:37:53;;;;;;;;;3.00;3.00;;;;;18.19;67.60;100898.78;4961150;28;45266;-78
2021/07/28 04:40:19;;;;;;;;;2.33;2.33;;;;;18.24;67.49;100907.50;4975779;28;45558;-79
2021/07/28 04:42:44;;;;;;;;;5.67;3.00;;;;;18.26;67.48;100903.00;4960896;28;45202;-78
2021/07/28 04:45:12;;;;;;;;;5.00;4.00;;;;;18.25;66.95;100898.59;4960456;28;45239;-79
2021/07/28 04:47:38;;;;;;;;;5.00;3.00;;;;;18.26;67.13;100907.47;4978017;28;45259;-78
2021/07/28 04:50:03;;;;;;;;;4.00;3.00;;;;;18.31;66.91;100908.19;4972480;28;45690;-78
2021/07/28 04:52:29;;;;;;;;;5.00;5.00;;;;;18.29;66.67;100892.25;4960594;28;45467;-78
2021/07/28 04:54:54;;;;;;;;;4.00;4.00;;;;;18.35;66.88;100901.81;4960664;28;45728;-78
2021/07/28 04:57:20;;;;;;;;;3.33;3.33;;;;;18.38;66.46;100903.50;4960836;28;45513;-79
2021/07/28 04:59:46;;;;;;;;;5.00;4.00;;;;;18.34;66.76;100896.56;4968851;28;45631;-79
2021/07/28 05:02:11;;;;;;;;;6.67;6.67;;;;;18.33;66.67;100897.47;4987871;28;46312;-79
2021/07/28 05:04:37;;;;;;;;;5.00;4.00;;;;;18.37;66.43;100909.78;4961797;28;45749;-78
2021/07/28 05:07:03;;;;;;;;;2.00;2.00;;;;;18.39;66.63;100913.25;4963631;28;45334;-78
2021/07/28 05:09:28;;;;;;;;;6.00;6.00;;;;;18.35;66.53;100901.81;4974843;28;45484;-78
2021/07/28 05:11:54;;;;;;;;;4.00;4.00;;;;;18.33;66.28;100903.66;4960997;28;45361;-78
2021/07/28 05:14:19;;;;;;;;;2.33;2.33;;;;;18.34;66.34;100902.75;4961928;28;45262;-78
2021/07/28 05:16:44;;;;;;;;;5.33;5.33;;;;;18.33;66.47;100900.13;4968518;28;45224;-79
2021/07/28 05:19:10;;;;;;;;;1.00;1.00;;;;;18.41;66.46;100914.06;4960277;28;45172;-78
2021/07/28 05:21:36;;;;;;;;;2.50;1.50;;;;;18.39;66.31;100908.81;4958955;28;46636;-79
2021/07/28 05:24:01;;;;;;;;;2.33;2.33;;;;;18.41;66.08;100917.59;4960120;28;45232;-79
2021/07/28 05:26:29;;;;;;;;;3.00;2.67;;;;;18.39;65.79;100924.81;4942780;28;45989;-78
2021/07/28 05:28:54;;;;;;;;;5.67;4.67;;;;;18.40;66.11;100928.34;4975626;28;45525;-79
2021/07/28 05:31:20;;;;;;;;;2.67;2.67;;;;;18.29;65.81;100904.69;4983893;28;45451;-79
2021/07/28 05:33:45;;;;;;;;;4.00;3.33;;;;;18.37;66.06;100923.97;4975184;28;45506;-79
2021/07/28 05:36:11;;;;;;;;;2.33;2.33;;;;;18.37;66.18;100918.66;4962166;28;45445;-79
2021/07/28 05:38:36;;;;;;;;;2.00;2.00;;;;;18.38;65.82;100914.19;4977016;28;45261;-80
2021/07/28 05:41:05;;;;;;;;;2.33;2.33;;;;;18.40;65.72;100913.22;4964102;28;45493;-80
2021/07/28 05:43:31;;;;;;;;;4.00;3.00;;;;;18.42;65.57;100919.38;4963941;28;45230;-81
2021/07/28 05:45:56;;;;;;;;;3.00;2.00;;;;;18.45;65.80;100921.91;4975713;28;45498;-82
2021/07/28 05:48:22;;;;;;;;;5.67;3.67;;;;;18.45;65.06;100923.72;4964637;28;45595;-81
2021/07/28 05:50:49;;;;;;;;;2.67;2.67;;;;;18.41;65.34;100922.94;4963420;28;46269;-80
2021/07/28 05:53:14;;;;;;;;;4.00;4.00;;;;;18.42;65.38;100931.81;4962860;28;45387;-80
2021/07/28 05:55:43;;;;;;;;;4.33;2.33;;;;;18.37;64.98;100926.63;4963268;28;45282;-81
2021/07/28 05:58:08;;;;;;;;;3.00;3.00;;;;;18.31;65.47;100918.84;4948013;28;45248;-80
2021/07/28 06:00:34;;;;;;;;;5.00;4.00;;;;;18.30;65.47;100925.09;4984247;28;46064;-80
2021/07/28 06:02:59;;;;;;;;;6.67;3.00;;;;;18.33;65.36;100938.31;4979103;28;45238;-80
2021/07/28 06:05:25;;;;;;;;;3.67;3.33;;;;;18.32;65.80;100935.72;4963364;28;45243;-77
2021/07/28 06:07:50;;;;;;;;;3.33;3.00;;;;;18.32;65.67;100941.03;4972373;28;45298;-78
2021/07/28 06:10:15;;;;;;;;;4.00;4.00;;;;;18.36;65.59;100940.00;4971377;28;46631;-79
2021/07/28 06:12:41;;;;;;;;;2.00;2.00;;;;;18.39;65.27;100945.22;4962724;28;45485;-80
2021/07/28 06:15:07;;;;;;;;;3.33;3.00;;;;;18.35;65.43;100941.81;4962659;28;45291;-79
2021/07/28 06:17:33;;;;;;;;;5.00;3.00;;;;;18.36;65.63;100934.69;4977290;28;45199;-79
2021/07/28 06:19:58;;;;;;;;;3.33;3.33;;;;;18.43;65.21;100944.22;4962902;28;45547;-79
2021/07/28 06:22:24;;;;;;;;;5.00;4.00;;;;;18.49;65.75;100952.00;4962623;28;45443;-77
2021/07/28 06:24:50;;;;;;;;;3.00;3.00;;;;;18.49;65.87;100950.22;4977364;28;45416;-78
2021/07/28 06:27:16;;;;;;;;;4.00;4.00;;;;;18.54;65.67;100942.06;4968029;28;45344;-78
2021/07/28 06:29:41;;;;;;;;;3.00;3.00;;;;;18.60;65.67;100947.19;4985772;28;45486;-79
2021/07/28 06:32:07;;;;;;;;;3.33;3.33;;;;;18.70;65.61;100951.28;4987851;28;45448;-78
2021/07/28 06:34:32;;;;;;;;;2.67;2.67;;;;;18.80;65.69;100951.88;4980823;28;45777;-78
2021/07/28 06:36:57;;;;;;;;;3.00;3.00;;;;;18.83;65.24;100950.91;4982372;28;45548;-79
2021/07/28 06:39:23;;;;;;;;;3.00;3.00;;;;;18.85;65.26;100947.25;4982057;28;45498;-78
2021/07/28 06:41:48;;;;;;;;;4.00;3.00;;;;;18.95;64.88;100956.69;4982411;28;45245;-75
2021/07/28 06:44:14;;;;;;;;;3.00;3.00;;;;;18.93;64.48;100953.19;4981612;28;45297;-76
2021/07/28 06:46:39;;;;;;;;;2.00;2.00;;;;;18.98;64.82;100955.72;4979894;28;45569;-76
2021/07/28 06:49:04;;;;;;;;;5.67;4.00;;;;;19.01;64.54;100944.94;4981649;28;45362;-79
2021/07/28 06:51:31;;;;;;;;;5.33;4.67;;;;;19.03;64.71;100942.19;4981402;28;45226;-78
2021/07/28 06:53:57;;;;;;;;;6.00;4.00;;;;;19.14;64.32;100956.06;4981924;28;45313;-79
2021/07/28 06:56:22;;;;;;;;;3.67;3.00;;;;;19.12;64.37;100941.88;4981144;28;45420;-81
2021/07/28 06:58:48;;;;;;;;;5.33;4.00;;;;;19.20;63.60;100952.28;4980811;28;45532;-78
2021/07/28 07:01:13;;;;;;;;;4.00;4.00;;;;;19.23;63.79;100946.84;4971557;28;45514;-78
2021/07/28 07:03:39;;;;;;;;;3.00;3.00;;;;;19.29;63.26;100958.13;4962137;28;45360;-80
2021/07/28 07:06:04;;;;;;;;;2.67;2.67;;;;;19.29;63.49;100960.81;4960435;28;45554;-77
2021/07/28 07:08:30;;;;;;;;;3.33;3.00;;;;;19.33;63.36;100954.44;4974971;28;47042;-78
2021/07/28 07:10:56;;;;;;;;;4.33;3.00;;;;;19.33;62.55;100949.09;4945712;28;45647;-77
2021/07/28 07:13:22;;;;;;;;;6.00;5.00;;;;;19.39;62.89;100950.69;4962333;28;45366;-77
2021/07/28 07:15:48;;;;;;;;;5.33;4.00;;;;;19.49;62.91;100957.41;4959917;28;45388;-77
2021/07/28 07:18:14;;;;;;;;;2.33;2.33;;;;;19.49;62.58;100946.75;4944306;28;46301;-77
2021/07/28 07:20:39;;;;;;;;;3.00;3.00;;;;;19.58;62.19;100969.56;4961500;28;45180;-77
2021/07/28 07:23:05;;;;;;;;;2.00;2.00;;;;;19.59;61.80;100965.94;4961899;28;45549;-77
2021/07/28 07:25:30;;;;;;;;;3.00;2.67;;;;;19.57;62.24;100963.34;4961531;28;45224;-77
2021/07/28 07:27:56;;;;;;;;;3.00;3.00;;;;;19.57;61.03;100971.34;4949083;28;46356;-77
2021/07/28 07:30:21;;;;;;;;;3.33;3.33;;;;;19.59;61.28;100964.16;4983128;28;45302;-77
2021/07/28 07:33:37;;;;;;;;;2.67;2.33;;;;;19.69;61.45;100959.34;4968492;28;45287;-77
2021/07/28 07:35:32;;;;;;;;;3.00;3.00;;;;;19.77;61.89;100961.75;4961239;28;45233;-77
2021/07/28 07:37:57;;;;;;;;;2.00;2.00;;;;;19.82;61.37;100963.31;4968124;28;46218;-77
2021/07/28 07:40:23;;;;;;;;;3.00;3.00;;;;;19.86;61.31;100960.50;4973826;28;45215;-77
2021/07/28 07:42:51;;;;;;;;;3.00;3.00;;;;;19.95;61.00;100960.16;4961714;28;45493;-77
2021/07/28 07:45:16;;;;;;;;;3.00;2.00;;;;;20.05;60.29;100967.75;4959992;28;45413;-77
2021/07/28 07:47:41;;;;;;;;;3.67;2.33;;;;;20.12;60.59;100947.00;4961285;28;46539;-76
2021/07/28 07:50:07;;;;;;;;;3.67;3.00;;;;;20.28;60.32;100966.81;4943819;28;45363;-77
2021/07/28 07:52:35;;;;;;;;;2.00;2.00;;;;;20.31;60.43;100960.47;4961589;28;45267;-76
2021/07/28 07:55:01;;;;;;;;;4.00;3.00;;;;;20.40;59.88;100972.63;4943967;28;45556;-76
2021/07/28 07:57:26;;;;;;;;;3.00;1.67;;;;;20.40;59.50;100961.94;4961265;28;45418;-77
2021/07/28 07:59:51;;;;;;;;;3.00;1.67;;;;;20.44;59.45;100972.41;4972788;28;45189;-76
2021/07/28 08:02:17;;;;;;;;;4.33;3.33;;;;;20.47;59.58;100976.78;4975871;28;45243;-76
2021/07/28 08:04:42;;;;;;;;;1.67;1.67;;;;;20.43;59.21;100962.66;4974131;28;45595;-77
2021/07/28 08:07:08;;;;;;;;;0.67;0.67;;;;;20.45;58.21;100976.00;4969699;28;45493;-77
2021/07/28 08:09:33;;;;;;;;;3.67;2.00;;;;;20.41;58.37;100974.34;4960974;28;45253;-77
2021/07/28 08:11:58;;;;;;;;;1.00;1.00;;;;;20.30;57.71;100960.56;4943926;28;45529;-78
2021/07/28 08:14:26;;;;;;;;;2.00;2.00;;;;;20.25;58.09;100964.28;4960697;28;45266;-78
2021/07/28 08:16:52;;;;;;;;;3.00;2.00;;;;;20.19;58.04;100971.69;4960584;28;45755;-78
2021/07/28 08:19:17;;;;;;;;;1.33;1.33;;;;;20.16;57.36;100980.69;4960640;28;45434;-78
2021/07/28 08:21:42;;;;;;;;;1.00;1.00;;;;;20.09;57.31;100968.50;4960726;28;45318;-78
2021/07/28 08:24:08;;;;;;;;;1.67;1.67;;;;;20.14;58.16;100966.50;4960473;28;45443;-78
2021/07/28 08:26:33;;;;;;;;;1.33;1.33;;;;;20.25;57.77;100968.75;4972973;28;46103;-78
2021/07/28 08:28:59;;;;;;;;;2.33;2.00;;;;;20.32;56.33;100964.91;4977660;28;45312;-78
2021/07/28 08:31:24;;;;;;;;;1.33;1.33;;;;;20.42;56.23;100963.59;4967868;28;45329;-78
2021/07/28 08:33:49;;;;;;;;;2.00;2.00;;;;;20.48;56.13;100959.81;4974554;28;45239;-77
2021/07/28 08:36:15;;;;;;;;;1.00;1.00;;;;;20.54;56.33;100953.38;4959016;28;47579;-78
2021/07/28 08:38:40;;;;;;;;;3.67;3.67;;;;;20.72;56.12;100962.44;4960470;28;45322;-78
2021/07/28 08:41:06;;;;;;;;;2.67;2.67;;;;;20.86;55.27;100958.22;4943213;28;45335;-78
2021/07/28 08:43:34;;;;;;;;;2.00;2.00;;;;;20.99;54.44;100965.72;4960215;28;45247;-78
2021/07/28 08:46:02;;;;;;;;;3.00;2.00;;;;;21.04;54.09;100977.09;4960017;28;46338;-78
2021/07/28 08:48:30;;;;;;;;;2.00;2.00;;;;;21.03;54.08;100954.78;4967068;28;45570;-78
2021/07/28 08:51:00;;;;;;;;;3.00;2.00;;;;;21.08;54.60;100962.63;4948301;28;45339;-78
2021/07/28 08:53:26;;;;;;;;;1.00;1.00;;;;;21.11;54.18;100958.00;4958736;28;45352;-78
2021/07/28 08:55:56;;;;;;;;;2.67;2.67;;;;;21.27;54.76;100954.66;4958721;28;47528;-78
2021/07/28 08:58:24;;;;;;;;;1.00;1.00;;;;;21.46;54.05;100971.66;4960215;28;45285;-77
2021/07/28 09:00:50;;;;;;;;;2.00;2.00;;;;;21.54;53.43;100955.22;4984884;28;45396;-78
2021/07/28 09:03:16;;;;;;;;;1.00;1.00;;;;;21.73;53.92;100963.28;4973233;28;45397;-78
2021/07/28 09:05:46;;;;;;;;;2.00;1.00;;;;;21.87;53.54;100970.69;4960743;28;45476;-78
2021/07/28 09:08:24;;;;;;;;;3.33;2.00;;;;;21.99;53.24;100970.97;4971121;28;45288;-78
2021/07/28 09:10:52;;;;;;;;;3.00;2.00;;;;;22.01;52.21;100958.34;4966945;28;45484;-78
2021/07/28 09:13:34;;;;;;;;;1.00;0.33;;;;;22.05;50.98;100967.13;4945722;28;45496;-78
2021/07/28 09:16:02;;;;;;;;;1.67;1.67;;;;;22.13;51.79;100969.44;4962832;28;45460;-78
2021/07/28 09:18:48;;;;;;;;;2.00;2.00;;;;;22.22;50.23;100967.22;4963165;28;45445;-78
2021/07/28 09:21:32;;;;;;;;;1.00;1.00;;;;;22.29;50.53;100977.63;4972754;28;45420;-78
2021/07/28 09:24:07;;;;;;;;;1.33;1.33;;;;;22.24;49.98;100976.06;4948283;28;45425;-78
2021/07/28 09:26:46;;;;;;;;;2.00;2.00;;;;;22.20;50.15;100960.19;4945270;28;48166;-78
2021/07/28 09:29:18;;;;;;;;;3.00;2.00;;;;;22.21;50.28;100978.91;4979161;28;45959;-78
2021/07/28 09:31:51;;;;;;;;;1.67;1.67;;;;;22.10;50.04;100973.13;4987665;28;45515;-78
2021/07/28 09:34:21;;;;;;;;;2.00;2.00;;;;;22.12;50.81;100975.75;4972327;28;45490;-76
2021/07/28 09:36:53;;;;;;;;;2.67;1.67;;;;;22.14;50.41;100976.56;4962624;28;46322;-76
2021/07/28 09:39:31;;;;;;;;;1.33;1.33;;;;;22.19;49.92;100977.25;4962924;28;45267;-77
2021/07/28 09:42:00;;;;;;;;;2.00;2.00;;;;;22.21;50.37;100973.53;4945261;28;45395;-76
2021/07/28 09:44:30;;;;;;;;;3.00;3.00;;;;;22.28;50.71;100963.38;4962109;28;45362;-76
2021/07/28 09:47:19;;;;;;;;;2.33;2.00;;;;;22.38;50.30;100974.53;4962625;28;45689;-77
2021/07/28 09:49:50;;;;;;;;;2.33;1.67;;;;;22.49;50.14;100965.94;4962856;28;45448;-77
2021/07/28 09:52:17;;;;;;;;;2.00;1.67;;;;;22.61;50.16;100984.09;4962948;28;45244;-78
2021/07/28 09:54:42;;;;;;;;;3.00;1.33;;;;;22.72;49.38;100980.88;4962575;28;45237;-77
2021/07/28 09:57:12;;;;;;;;;3.00;3.00;;;;;22.80;49.71;100971.50;4962619;28;45360;-77
2021/07/28 09:59:43;;;;;;;;;2.00;1.00;;;;;22.82;48.92;100961.53;4964786;28;45851;-77
2021/07/28 10:02:08;;;;;;;;;1.00;1.00;;;;;22.85;49.59;100963.19;4988787;28;45323;-77
2021/07/28 10:04:34;;;;;;;;;2.00;2.00;;;;;22.91;49.47;100970.94;4964123;28;45569;-78
2021/07/28 10:07:01;;;;;;;;;2.33;2.33;;;;;22.94;49.14;100973.47;4965502;28;45384;-79
2021/07/28 10:09:32;;;;;;;;;2.67;2.67;;;;;23.00;49.20;100973.19;4975318;28;45991;-78
2021/07/28 10:11:58;;;;;;;;;1.33;1.33;;;;;22.98;48.29;100961.63;4962625;28;45172;-78
2021/07/28 10:14:28;;;;;;;;;4.00;2.33;;;;;23.09;48.58;100982.56;4968504;28;45668;-78
2021/07/28 10:16:54;;;;;;;;;2.00;2.00;;;;;23.07;48.42;100966.56;4967009;28;48502;-78
2021/07/28 10:19:21;;;;;;;;;4.00;2.00;;;;;23.22;48.35;100970.22;4961371;28;45303;-79
2021/07/28 10:21:47;;;;;;;;;4.00;3.00;;;;;23.25;48.05;100956.63;4976663;28;45448;-77
2021/07/28 10:24:12;;;;;;;;;3.00;3.00;;;;;23.37;48.29;100973.06;4962719;28;45244;-78
2021/07/28 10:26:41;;;;;;;;;2.00;2.00;;;;;23.40;47.77;100967.53;4962341;28;46111;-78
2021/07/28 10:29:08;;;;;;;;;3.00;3.00;;;;;23.54;48.35;100973.00;4979248;28;45380;-78
2021/07/28 10:31:48;;;;;;;;;2.67;2.67;;;;;23.68;47.20;100967.78;4989273;28;45295;-78
2021/07/28 10:34:34;;;;;;;;;3.00;3.00;;;;;23.75;47.22;100958.44;4971975;28;45525;-76
2021/07/28 10:37:02;;;;;;;;;2.00;2.00;;;;;23.89;46.76;100957.66;4961965;28;46771;-76
2021/07/28 10:39:47;;;;;;;;;2.00;2.00;;;;;24.07;46.97;100962.97;4960885;28;45428;-76
2021/07/28 10:42:19;;;;;;;;;2.33;2.00;;;;;24.16;46.90;100957.94;4969560;28;45409;-76
2021/07/28 10:44:57;;;;;;;;;3.00;2.00;;;;;24.20;47.12;100959.50;4965057;28;45429;-76
2021/07/28 10:47:50;;;;;;;;;3.33;2.00;;;;;24.22;46.31;100954.03;4962118;28;46538;-76
2021/07/28 10:50:22;;;;;;;;;2.00;2.00;;;;;24.15;45.88;100968.78;4968423;28;45294;-78
2021/07/28 10:52:57;;;;;;;;;1.00;1.00;;;;;24.07;45.58;100969.22;4965891;28;45420;-77
2021/07/28 10:55:29;;;;;;;;;3.00;2.00;;;;;23.97;45.45;100965.28;4963334;28;45447;-77
2021/07/28 10:57:54;;;;;;;;;1.67;1.67;;;;;23.89;43.84;100960.34;4961583;28;46586;-77
2021/07/28 11:00:35;;;;;;;;;1.00;1.00;;;;;23.84;44.12;100966.94;4970229;28;45198;-77
2021/07/28 11:03:00;;;;;;;;;2.00;2.00;;;;;23.80;43.46;100973.44;4982724;28;45367;-77
2021/07/28 11:05:31;;;;;;;;;5.00;3.00;;;;;23.79;44.19;100967.22;4952106;28;45373;-78
2021/07/28 11:08:05;;;;;;;;;1.33;1.00;;;;;23.89;44.24;100971.09;4971851;28;45470;-77
2021/07/28 11:10:58;;;;;;;;;3.33;2.00;;;;;23.87;43.44;100970.34;4967665;28;45380;-77
2021/07/28 11:13:26;;;;;;;;;1.33;1.33;;;;;23.75;43.18;100976.38;4944406;28;45468;-78
2021/07/28 11:15:57;;;;;;;;;4.00;4.00;;;;;23.68;43.76;100981.22;4943475;28;45277;-78
2021/07/28 11:18:41;;;;;;;;;2.00;2.00;;;;;23.66;43.21;100988.50;4960020;28;46964;-78
2021/07/28 11:21:17;;;;;;;;;1.67;1.67;;;;;23.63;43.36;100980.59;4967682;28;45458;-78
2021/07/28 11:23:44;;;;;;;;;1.33;1.33;;;;;23.68;43.37;100986.59;4948252;28;45544;-78
2021/07/28 11:26:35;;;;;;;;;1.33;1.00;;;;;23.83;43.87;100982.22;4961539;28;45252;-78
2021/07/28 11:29:07;;;;;;;;;2.00;2.00;;;;;24.04;43.48;100981.97;4976142;28;47083;-78